Time;durP1;ratioP1;P1;durP2;ratioP2;P2;SDS_P1;SDS_P2;PMS_P1;PMS_P2;Temp;Humidity;BMP_temperature;BMP_pressure;BME280_temperature;BME280_humidity;BME280_pressure;Samples;Min_cycle;Max_cycle;Signal;HPM_P1;HPM_P2
2023/11/21 00:01:21;;;;;;;4.70;2.30;;;;;;;18.16;52.38;97201.94;104723;1273;74425;-39
2023/11/21 00:03:48;;;;;;;2.40;2.20;;;;;;;18.16;52.39;97204.02;104634;1270;66061;-39
2023/11/21 00:06:15;;;;;;;2.30;2.10;;;;;;;18.16;52.38;97204.48;104730;1274;72364;-39
2023/11/21 00:08:42;;;;;;;1.90;1.70;;;;;;;18.16;52.42;97202.95;104734;1273;61296;-39
2023/11/21 00:11:08;;;;;;;2.30;2.00;;;;;;;18.16;52.48;97204.56;104682;1268;61294;-38
2023/11/21 00:13:35;;;;;;;3.10;2.10;;;;;;;18.16;52.38;97204.95;104546;1273;74616;-39
2023/11/21 00:16:02;;;;;;;2.80;2.10;;;;;;;18.15;52.37;97200.77;104501;1273;65300;-39
2023/11/21 00:18:29;;;;;;;2.30;2.10;;;;;;;18.15;52.37;97204.47;104490;1273;72666;-39
2023/11/21 00:20:58;;;;;;;2.50;2.10;;;;;;;18.15;52.37;97205.00;104378;1272;61377;-39
2023/11/21 00:23:25;;;;;;;2.40;2.20;;;;;;;18.15;52.37;97201.29;104378;1271;61391;-39
2023/11/21 00:25:52;;;;;;;2.20;2.00;;;;;;;18.15;52.36;97201.73;104384;1271;74951;-39
2023/11/21 00:28:19;;;;;;;2.20;2.00;;;;;;;18.15;52.40;97204.61;104411;1272;65840;-39
2023/11/21 00:30:46;;;;;;;2.40;2.10;;;;;;;18.15;52.37;97208.94;104577;1268;72615;-39
2023/11/21 00:33:12;;;;;;;2.50;1.90;;;;;;;18.14;52.46;97211.19;104419;1274;61310;-39
2023/11/21 00:35:39;;;;;;;2.50;2.20;;;;;;;18.15;52.41;97211.81;104458;1272;61303;-39
2023/11/21 00:38:08;;;;;;;2.70;2.00;;;;;;;18.14;52.33;97213.73;104401;1268;74660;-39
2023/11/21 00:40:34;;;;;;;2.30;2.10;;;;;;;18.14;52.34;97212.42;104584;1273;65873;-39
2023/11/21 00:43:01;;;;;;;2.30;2.10;;;;;;;18.13;52.39;97210.48;104584;1268;72692;-39
2023/11/21 00:45:30;;;;;;;2.70;2.20;;;;;;;18.14;52.40;97212.41;104702;1268;61408;-39
2023/11/21 00:47:58;;;;;;;2.40;2.20;;;;;;;18.14;52.36;97214.58;104641;1269;61297;-38
2023/11/21 00:50:25;;;;;;;2.10;1.90;;;;;;;18.14;52.30;97211.71;104653;1273;74715;-39
2023/11/21 00:52:51;;;;;;;2.90;2.10;;;;;;;18.14;52.24;97215.81;104412;1270;66118;-41
2023/11/21 00:55:18;;;;;;;2.60;2.20;;;;;;;18.13;52.38;97211.40;104444;1268;72627;-38
2023/11/21 00:57:45;;;;;;;2.10;1.90;;;;;;;18.14;52.36;97210.48;104373;1274;61340;-39
2023/11/21 01:00:17;;;;;;;2.10;1.90;;;;;;;18.14;52.44;97205.52;104469;1268;61358;-38
2023/11/21 01:02:47;;;;;;;2.30;1.90;;;;;;;18.14;52.39;97201.64;104417;1271;74668;-39
2023/11/21 01:05:14;;;;;;;2.40;2.00;;;;;;;18.14;52.35;97206.29;104654;1274;65443;-40
2023/11/21 01:07:41;;;;;;;3.90;2.10;;;;;;;18.13;52.31;97207.99;104540;1269;72538;-39
2023/11/21 01:10:09;;;;;;;2.40;2.00;;;;;;;18.13;52.32;97209.23;104598;1273;61344;-39
2023/11/21 01:12:37;;;;;;;3.00;1.90;;;;;;;18.13;52.29;97209.52;104556;1270;61952;-40
2023/11/21 01:15:07;;;;;;;2.20;2.00;;;;;;;18.13;52.39;97212.95;104560;1268;74463;-39
2023/11/21 01:17:34;;;;;;;2.80;2.10;;;;;;;18.13;52.31;97215.34;104603;1270;66247;-39
2023/11/21 01:20:03;;;;;;;2.80;2.10;;;;;;;18.13;52.27;97214.32;104528;1268;72721;-39
2023/11/21 01:22:30;;;;;;;2.50;2.30;;;;;;;18.13;52.31;97215.95;104726;1270;61281;-39
2023/11/21 01:24:57;;;;;;;2.20;2.00;;;;;;;18.12;52.31;97219.58;104702;1268;61342;-39
2023/11/21 01:27:24;;;;;;;2.10;1.90;;;;;;;18.12;52.29;97219.42;104708;1270;74611;-39
2023/11/21 01:29:53;;;;;;;4.80;2.00;;;;;;;18.13;52.29;97220.98;104711;1273;65905;-39
2023/11/21 01:32:21;;;;;;;2.20;2.00;;;;;;;18.13;52.32;97217.35;104589;1268;72958;-39
2023/11/21 01:34:50;;;;;;;2.40;2.10;;;;;;;18.12;52.30;97215.86;104597;1273;61290;-39
2023/11/21 01:37:17;;;;;;;2.90;2.00;;;;;;;18.13;52.31;97219.20;104417;1268;61362;-39
2023/11/21 01:39:44;;;;;;;2.30;2.00;;;;;;;18.12;52.30;97220.64;104629;1268;74427;-39
2023/11/21 01:42:12;;;;;;;2.60;2.20;;;;;;;18.12;52.28;97223.60;104695;1273;66214;-39
2023/11/21 01:44:39;;;;;;;2.40;2.00;;;;;;;18.12;52.31;97223.13;104489;1273;72439;-39
2023/11/21 01:47:06;;;;;;;2.40;1.90;;;;;;;18.12;52.28;97219.65;104395;1273;61262;-39
2023/11/21 01:49:33;;;;;;;2.10;1.90;;;;;;;18.12;52.34;97222.52;104445;1268;61390;-39
2023/11/21 01:52:00;;;;;;;2.60;2.10;;;;;;;18.12;52.26;97219.40;104575;1270;74378;-39
2023/11/21 01:54:26;;;;;;;2.50;2.00;;;;;;;18.12;52.24;97216.16;104651;1273;65353;-39
2023/11/21 01:56:53;;;;;;;1.90;1.70;;;;;;;18.12;52.25;97217.02;104710;1273;72613;-39
2023/11/21 01:59:23;;;;;;;3.20;2.20;;;;;;;18.12;52.32;97216.40;104724;1273;61733;-39
2023/11/21 02:01:50;;;;;;;3.20;2.10;;;;;;;18.11;52.29;97212.98;104670;1268;61325;-39
2023/11/21 02:04:18;;;;;;;2.40;2.10;;;;;;;18.11;52.19;97213.45;104699;1268;74631;-39
2023/11/21 02:06:44;;;;;;;4.90;2.00;;;;;;;18.11;52.27;97212.13;104642;1273;65002;-40
2023/11/21 02:09:15;;;;;;;2.20;2.00;;;;;;;18.11;52.17;97209.88;104851;1268;73129;-40
2023/11/21 02:11:42;;;;;;;2.30;2.00;;;;;;;18.11;52.16;97212.44;104599;1274;61298;-40
2023/11/21 02:14:09;;;;;;;1.90;1.70;;;;;;;18.11;52.22;97214.85;104767;1268;61173;-40
2023/11/21 02:16:36;;;;;;;2.60;1.80;;;;;;;18.11;52.21;97218.55;104443;1271;74599;-39
2023/11/21 02:19:03;;;;;;;2.30;1.90;;;;;;;18.11;52.18;97218.70;104371;1273;66020;-39
2023/11/21 02:21:30;;;;;;;2.90;2.10;;;;;;;18.10;52.27;97224.73;104684;1268;72458;-39
2023/11/21 02:23:57;;;;;;;2.10;1.90;;;;;;;18.10;52.23;97227.14;104897;1275;61365;-39
2023/11/21 02:26:25;;;;;;;2.40;1.80;;;;;;;18.10;52.19;97224.80;104529;1268;61397;-39
2023/11/21 02:28:53;;;;;;;2.20;1.90;;;;;;;18.10;52.19;97227.75;104361;1268;74556;-39
2023/11/21 02:31:20;;;;;;;2.50;2.00;;;;;;;18.10;52.22;97228.13;104424;1272;66180;-39
2023/11/21 02:33:47;;;;;;;2.30;2.10;;;;;;;18.10;52.27;97225.65;104405;1268;72433;-39
2023/11/21 02:36:13;;;;;;;1.80;1.70;;;;;;;18.10;52.22;97223.33;104460;1273;61275;-39
2023/11/21 02:38:40;;;;;;;2.20;2.00;;;;;;;18.10;52.24;97226.27;104497;1268;61361;-39
2023/11/21 02:41:06;;;;;;;2.10;1.90;;;;;;;18.10;52.17;97227.20;104554;1274;74606;-38
2023/11/21 02:43:33;;;;;;;2.70;2.10;;;;;;;18.10;52.22;97224.58;104484;1271;66124;-38
2023/11/21 02:46:00;;;;;;;3.90;1.90;;;;;;;18.10;52.15;97225.65;104358;1268;72480;-40
2023/11/21 02:48:27;;;;;;;2.10;1.80;;;;;;;18.10;52.25;97227.59;104438;1272;61393;-39
2023/11/21 02:50:53;;;;;;;2.40;1.90;;;;;;;18.09;52.18;97225.25;104741;1268;61441;-39
2023/11/21 02:53:20;;;;;;;2.30;2.10;;;;;;;18.09;52.19;97227.96;104548;1268;74685;-39
2023/11/21 02:55:47;;;;;;;1.90;1.70;;;;;;;18.09;52.18;97227.58;104612;1273;65838;-39
2023/11/21 02:58:14;;;;;;;2.10;1.90;;;;;;;18.09;52.23;97228.13;104641;1268;72405;-39
2023/11/21 03:00:42;;;;;;;2.40;2.00;;;;;;;18.09;52.14;97226.96;104646;1272;61646;-39
2023/11/21 03:03:09;;;;;;;2.00;1.70;;;;;;;18.09;52.16;97226.10;104571;1268;61392;-39
2023/11/21 03:05:36;;;;;;;2.10;2.00;;;;;;;18.08;52.19;97229.20;104538;1273;74588;-39
2023/11/21 03:08:03;;;;;;;1.90;1.80;;;;;;;18.09;52.16;97230.36;104587;1273;65318;-39
2023/11/21 03:10:30;;;;;;;2.20;2.00;;;;;;;18.08;52.18;97234.52;104760;1268;72602;-39
2023/11/21 03:12:57;;;;;;;1.90;1.70;;;;;;;18.09;52.24;97238.56;104530;1272;61290;-40
2023/11/21 03:15:25;;;;;;;2.10;1.90;;;;;;;18.09;52.15;97241.05;104556;1274;61340;-39
2023/11/21 03:17:52;;;;;;;2.10;1.90;;;;;;;18.09;52.16;97246.30;104599;1270;74710;-39
2023/11/21 03:20:18;;;;;;;2.10;1.90;;;;;;;18.08;52.10;97245.42;104708;1273;65891;-39
2023/11/21 03:22:45;;;;;;;2.20;2.00;;;;;;;18.09;52.15;97243.83;104439;1268;72454;-40
2023/11/21 03:25:12;;;;;;;2.60;1.80;;;;;;;18.09;52.24;97246.31;104391;1273;61183;-39
2023/11/21 03:27:39;;;;;;;2.40;1.90;;;;;;;18.09;52.15;97252.49;104477;1268;61376;-39
2023/11/21 03:30:08;;;;;;;2.10;1.90;;;;;;;18.08;52.17;97252.79;104615;1268;74456;-38
2023/11/21 03:32:35;;;;;;;2.00;1.80;;;;;;;18.08;52.13;97254.10;104626;1269;66466;-38
2023/11/21 03:35:03;;;;;;;2.60;2.10;;;;;;;18.08;52.17;97250.46;104715;1268;72492;-39
2023/11/21 03:37:30;;;;;;;2.60;2.00;;;;;;;18.08;52.14;97251.00;104658;1271;61284;-39
2023/11/21 03:39:56;;;;;;;1.90;1.80;;;;;;;18.08;52.14;97251.07;104684;1268;61358;-39
2023/11/21 03:42:26;;;;;;;2.00;1.80;;;;;;;18.08;52.09;97247.98;104539;1273;74598;-39
2023/11/21 03:44:53;;;;;;;2.20;2.00;;;;;;;18.08;52.19;97253.08;104587;1273;65434;-39
2023/11/21 03:47:20;;;;;;;2.10;1.90;;;;;;;18.07;52.16;97250.77;104395;1268;72592;-39
2023/11/21 03:49:46;;;;;;;2.00;1.80;;;;;;;18.07;52.18;97253.30;104629;1273;61359;-39
2023/11/21 03:52:15;;;;;;;2.90;2.00;;;;;;;18.07;52.14;97255.15;104615;1268;61266;-39
2023/11/21 03:54:43;;;;;;;2.20;2.00;;;;;;;18.07;52.15;97253.98;104755;1274;74471;-39
2023/11/21 03:57:09;;;;;;;2.30;2.00;;;;;;;18.07;52.11;97259.65;104615;1273;66182;-39
2023/11/21 03:59:36;;;;;;;1.70;1.60;;;;;;;18.07;52.09;97260.25;104435;1268;72524;-39
2023/11/21 04:02:03;;;;;;;2.70;1.70;;;;;;;18.07;52.14;97257.09;104432;1272;61380;-39
2023/11/21 04:04:30;;;;;;;2.00;1.80;;;;;;;18.07;52.13;97260.11;104729;1268;61334;-39
2023/11/21 04:06:56;;;;;;;1.90;1.80;;;;;;;18.07;52.14;97256.63;104651;1268;73400;-39
2023/11/21 04:09:25;;;;;;;2.20;2.00;;;;;;;18.06;52.05;97256.94;104473;1272;66212;-39
2023/11/21 04:11:52;;;;;;;1.80;1.60;;;;;;;18.06;52.12;97253.20;104479;1268;72501;-39
2023/11/21 04:14:19;;;;;;;2.10;1.90;;;;;;;18.06;52.16;97251.76;104557;1273;61263;-39
2023/11/21 04:16:46;;;;;;;3.80;1.80;;;;;;;18.06;52.10;97251.36;104721;1268;61288;-39
2023/11/21 04:19:14;;;;;;;2.20;1.90;;;;;;;18.06;52.10;97249.96;104665;1268;73430;-39
2023/11/21 04:21:42;;;;;;;2.20;1.90;;;;;;;18.06;52.16;97248.27;104650;1273;66061;-39
2023/11/21 04:24:09;;;;;;;1.70;1.60;;;;;;;18.06;52.10;97253.67;104907;1268;72416;-39
2023/11/21 04:26:35;;;;;;;2.10;1.90;;;;;;;18.06;52.12;97256.55;104715;1273;61285;-39
2023/11/21 04:29:02;;;;;;;2.00;1.80;;;;;;;18.05;52.17;97257.91;104978;1269;61256;-39
2023/11/21 04:31:29;;;;;;;2.20;1.80;;;;;;;18.06;52.11;97259.48;104506;1271;74473;-39
2023/11/21 04:33:55;;;;;;;2.60;1.80;;;;;;;18.05;52.10;97259.16;105083;1271;65542;-39
2023/11/21 04:36:22;;;;;;;2.30;1.90;;;;;;;18.06;52.11;97261.34;104550;1268;73166;-38
2023/11/21 04:38:49;;;;;;;2.10;1.90;;;;;;;18.05;52.09;97260.48;104582;1273;61284;-38
2023/11/21 04:41:15;;;;;;;1.70;1.60;;;;;;;18.05;52.05;97265.52;108360;1268;58958;-39
2023/11/21 04:43:42;;;;;;;2.00;1.80;;;;;;;18.06;52.03;97266.37;107249;1268;61365;-39
2023/11/21 04:46:09;;;;;;;2.30;1.70;;;;;;;18.06;52.13;97269.00;104507;1273;66092;-38
2023/11/21 04:48:35;;;;;;;2.00;1.80;;;;;;;18.06;52.16;97274.52;104513;1268;72372;-40
2023/11/21 04:51:04;;;;;;;2.70;1.60;;;;;;;18.07;52.07;97277.00;104550;1274;61233;-40
2023/11/21 04:53:30;;;;;;;3.00;2.20;;;;;;;18.07;52.01;97273.96;104710;1268;61316;-40
2023/11/21 04:55:59;;;;;;;3.00;1.70;;;;;;;18.08;51.99;97275.23;104678;1268;74543;-40
2023/11/21 04:58:26;;;;;;;2.20;2.00;;;;;;;18.08;52.00;97274.85;104516;1271;66023;-40
2023/11/21 05:00:53;;;;;;;2.20;1.80;;;;;;;18.08;51.96;97270.20;104564;1268;72649;-40
2023/11/21 05:03:19;;;;;;;2.10;1.80;;;;;;;18.08;51.98;97261.91;104530;1273;61363;-40
2023/11/21 05:05:46;;;;;;;3.00;1.60;;;;;;;18.08;52.02;97258.50;104638;1268;61394;-40
2023/11/21 05:08:13;;;;;;;2.10;1.90;;;;;;;18.08;51.99;97260.52;104759;1273;74660;-42
2023/11/21 05:10:39;;;;;;;2.70;2.30;;;;;;;18.07;52.04;97261.83;104674;1272;65573;-41
2023/11/21 05:13:10;;;;;;;3.10;2.50;;;;;;;18.07;51.75;97265.08;104718;1268;72454;-41
2023/11/21 05:15:38;;;;;;;2.90;2.60;;;;;;;18.08;51.52;97263.79;104482;1273;61374;-41
2023/11/21 05:18:06;;;;;;;3.70;2.40;;;;;;;18.11;51.45;97268.25;104772;1268;61307;-40
2023/11/21 05:20:33;;;;;;;4.60;2.40;;;;;;;18.15;51.27;97273.61;104567;1272;74457;-41
2023/11/21 05:22:59;;;;;;;3.00;2.50;;;;;;;18.18;51.08;97280.63;104363;1273;64850;-41
2023/11/21 05:25:26;;;;;;;2.50;2.20;;;;;;;18.20;50.88;97281.09;104653;1268;72653;-40
2023/11/21 05:27:56;;;;;;;2.60;2.40;;;;;;;18.23;50.89;97283.53;104622;1272;61253;-41
2023/11/21 05:30:22;;;;;;;2.70;2.50;;;;;;;18.25;50.76;97288.06;104635;1268;61265;-42
2023/11/21 05:32:53;;;;;;;3.20;2.50;;;;;;;18.26;50.66;97293.20;104394;1268;74635;-41
2023/11/21 05:35:21;;;;;;;3.00;2.30;;;;;;;18.28;50.60;97294.08;104575;1273;66353;-42
2023/11/21 05:37:47;;;;;;;3.40;2.50;;;;;;;18.29;50.49;97296.43;104592;1268;72054;-41
2023/11/21 05:40:15;;;;;;;3.10;2.60;;;;;;;18.30;50.57;97294.67;104610;1272;61364;-41
2023/11/21 05:42:41;;;;;;;4.70;2.60;;;;;;;18.30;50.47;97297.08;104520;1268;61972;-41
2023/11/21 05:45:10;;;;;;;2.70;2.30;;;;;;;18.30;50.50;97302.95;104544;1275;74466;-41
2023/11/21 05:47:43;;;;;;;2.50;2.30;;;;;;;18.30;50.46;97305.59;104393;1268;66230;-41
2023/11/21 05:50:12;;;;;;;2.80;2.40;;;;;;;18.30;50.44;97308.54;104574;1268;72603;-41
2023/11/21 05:52:39;;;;;;;3.00;2.60;;;;;;;18.30;50.47;97310.32;106345;1271;61304;-41
2023/11/21 05:55:09;;;;;;;2.80;2.50;;;;;;;18.30;50.52;97313.03;104473;1268;61338;-42
2023/11/21 05:57:40;;;;;;;2.80;2.50;;;;;;;18.30;50.40;97318.84;104448;1272;74611;-40
2023/11/21 06:00:20;;;;;;;2.90;2.60;;;;;;;18.30;50.47;97320.47;104588;1272;66802;-40
2023/11/21 06:02:54;;;;;;;3.50;2.40;;;;;;;18.29;50.38;97323.38;104452;1271;72412;-41
2023/11/21 06:05:23;;;;;;;2.80;2.50;;;;;;;18.28;50.45;97320.87;104570;1273;61279;-41
2023/11/21 06:07:52;;;;;;;4.20;2.80;;;;;;;18.27;50.38;97322.65;104657;1268;61281;-39
2023/11/21 06:10:21;;;;;;;3.00;2.60;;;;;;;18.27;50.46;97329.46;104381;1273;73822;-39
2023/11/21 06:12:48;;;;;;;6.90;2.50;;;;;;;18.26;50.47;97332.21;104514;1273;66226;-40
2023/11/21 06:15:15;;;;;;;2.90;2.60;;;;;;;18.25;50.57;97335.31;104599;1268;72401;-40
2023/11/21 06:17:42;;;;;;;4.50;2.50;;;;;;;18.24;50.57;97337.23;104532;1273;61893;-40
2023/11/21 06:20:11;;;;;;;2.60;2.40;;;;;;;18.24;50.65;97334.89;104423;1268;61314;-42
2023/11/21 06:22:41;;;;;;;3.00;2.30;;;;;;;18.24;50.90;97333.52;104509;1268;73225;-40
2023/11/21 06:25:08;;;;;;;2.90;2.20;;;;;;;18.24;51.23;97338.38;104572;1270;64971;-40
2023/11/21 06:27:39;;;;;;;3.70;2.70;;;;;;;18.25;51.42;97341.02;104356;1268;72310;-40
2023/11/21 06:30:06;;;;;;;5.70;2.40;;;;;;;18.25;51.60;97337.02;104571;1268;61287;-41
2023/11/21 06:32:34;;;;;;;3.60;2.70;;;;;;;18.26;51.81;97338.12;104538;1273;61281;-41
2023/11/21 06:35:03;;;;;;;2.40;2.20;;;;;;;18.27;51.95;97340.84;104439;1273;74503;-41
2023/11/21 06:37:31;;;;;;;3.00;2.10;;;;;;;18.28;51.99;97340.77;104478;1273;67194;-40
2023/11/21 06:39:59;;;;;;;3.00;2.70;;;;;;;18.30;52.01;97345.47;104394;1268;72795;-38
2023/11/21 06:42:26;;;;;;;3.10;2.50;;;;;;;18.30;51.72;97347.89;104300;1274;61745;-39
2023/11/21 06:45:01;;;;;;;3.60;2.30;;;;;;;18.30;51.56;97353.14;104428;1268;61297;-41
2023/11/21 06:47:30;;;;;;;3.10;2.80;;;;;;;18.30;51.72;97358.58;104120;1274;74688;-41
2023/11/21 06:49:58;;;;;;;3.60;2.40;;;;;;;18.30;51.87;97366.48;104470;1272;66154;-42
2023/11/21 06:52:24;;;;;;;2.90;2.40;;;;;;;18.31;51.91;97368.73;104267;1268;72646;-41
2023/11/21 06:54:51;;;;;;;3.20;2.60;;;;;;;18.31;51.93;97370.52;104283;1268;61408;-41
2023/11/21 06:57:18;;;;;;;3.20;2.70;;;;;;;18.32;52.03;97371.23;104484;1268;61373;-40
2023/11/21 06:59:48;;;;;;;5.90;2.90;;;;;;;18.33;52.13;97370.41;104349;1269;75301;-41
2023/11/21 07:02:21;;;;;;;5.20;2.70;;;;;;;18.34;52.18;97372.05;104200;1277;66631;-41
2023/11/21 07:04:48;;;;;;;2.90;2.50;;;;;;;18.35;52.22;97370.44;104386;1268;73753;-42
2023/11/21 07:07:15;;;;;;;3.30;2.60;;;;;;;18.35;52.24;97374.95;104570;1273;61266;-43
2023/11/21 07:09:42;;;;;;;3.50;2.70;;;;;;;18.36;52.30;97374.95;104531;1268;61252;-41
2023/11/21 07:12:09;;;;;;;4.00;3.00;;;;;;;18.37;52.31;97368.80;104510;1268;74585;-41
2023/11/21 07:14:39;;;;;;;4.80;2.80;;;;;;;18.38;52.34;97370.27;104438;1268;66444;-42
2023/11/21 07:17:07;;;;;;;4.90;2.90;;;;;;;18.38;52.34;97372.63;104411;1273;72458;-41
2023/11/21 07:19:34;;;;;;;5.20;2.90;;;;;;;18.39;52.44;97374.64;104519;1272;61220;-41
2023/11/21 07:22:01;;;;;;;4.30;3.00;;;;;;;18.40;52.34;97378.14;104350;1274;61303;-42
2023/11/21 07:24:28;;;;;;;4.10;3.30;;;;;;;18.41;52.40;97375.68;104418;1273;74723;-41
2023/11/21 07:26:56;;;;;;;5.10;3.30;;;;;;;18.42;52.45;97377.25;104384;1268;66208;-41
2023/11/21 07:29:25;;;;;;;6.00;3.10;;;;;;;18.43;52.28;97371.55;104331;1268;71386;-42
2023/11/21 07:32:03;;;;;;;3.40;3.10;;;;;;;18.44;52.29;97370.41;104539;1272;61419;-43
2023/11/21 07:34:57;;;;;;;5.70;3.20;;;;;;;18.46;52.33;97367.22;104011;1276;61246;-42
2023/11/21 07:37:24;;;;;;;3.80;3.10;;;;;;;18.47;52.32;97369.64;104320;1273;74041;-42
2023/11/21 07:39:55;;;;;;;3.40;3.00;;;;;;;18.48;52.42;97367.66;104413;1272;65781;-42
2023/11/21 07:42:26;;;;;;;4.40;3.60;;;;;;;18.49;52.21;97361.25;104402;1268;72496;-41
2023/11/21 07:44:52;;;;;;;3.80;3.30;;;;;;;18.49;52.17;97357.36;104793;1272;61342;-41
2023/11/21 07:47:19;;;;;;;4.10;3.10;;;;;;;18.50;52.23;97351.27;104371;1268;61360;-42
2023/11/21 07:49:47;;;;;;;5.10;3.60;;;;;;;18.51;52.38;97349.20;104633;1269;73822;-42
2023/11/21 07:52:16;;;;;;;4.20;3.10;;;;;;;18.51;52.44;97346.50;104588;1268;67334;-40
2023/11/21 07:54:43;;;;;;;3.50;3.00;;;;;;;18.53;52.51;97345.67;108306;1267;72414;-41
2023/11/21 07:57:13;;;;;;;4.30;3.50;;;;;;;18.54;52.43;97343.30;107895;1267;59835;-41
2023/11/21 07:59:41;;;;;;;6.20;3.30;;;;;;;18.56;52.67;97345.11;104547;1268;61226;-40
2023/11/21 08:02:08;;;;;;;3.70;3.20;;;;;;;18.58;52.82;97347.86;104251;1273;74447;-40
2023/11/21 08:04:35;;;;;;;6.80;3.20;;;;;;;18.60;52.83;97345.43;104708;1272;66771;-41
2023/11/21 08:07:03;;;;;;;3.80;3.10;;;;;;;18.61;52.93;97342.89;105545;1270;73401;-42
2023/11/21 08:09:31;;;;;;;4.20;3.40;;;;;;;18.63;53.05;97348.20;104125;1274;61249;-42
2023/11/21 08:12:00;;;;;;;8.20;3.50;;;;;;;18.65;53.08;97349.80;104359;1271;61357;-42
2023/11/21 08:14:27;;;;;;;3.30;2.90;;;;;;;18.66;53.09;97356.10;104311;1268;74262;-42
2023/11/21 08:16:57;;;;;;;3.80;2.90;;;;;;;18.68;53.08;97361.77;104264;1274;65921;-41
2023/11/21 08:19:25;;;;;;;3.90;3.40;;;;;;;18.69;53.01;97368.23;104535;1268;72459;-40
2023/11/21 08:21:54;;;;;;;4.10;3.30;;;;;;;18.70;52.97;97363.98;104549;1268;61272;-40
2023/11/21 08:24:21;;;;;;;6.30;3.10;;;;;;;18.70;52.96;97364.08;104660;1268;61581;-43
2023/11/21 08:26:49;;;;;;;4.40;3.00;;;;;;;18.71;52.95;97363.16;104585;1270;75473;-42
2023/11/21 08:29:16;;;;;;;3.50;3.10;;;;;;;18.72;52.98;97366.59;104506;1268;66660;-42
2023/11/21 08:31:44;;;;;;;4.00;3.20;;;;;;;18.73;52.97;97374.73;104154;1269;73644;-42
2023/11/21 08:34:11;;;;;;;5.50;3.20;;;;;;;18.73;52.87;97373.66;104106;1273;61395;-40
2023/11/21 08:36:43;;;;;;;3.50;2.70;;;;;;;18.74;52.88;97373.14;104120;1268;61894;-41
2023/11/21 08:39:13;;;;;;;3.90;3.10;;;;;;;18.74;52.84;97373.67;104434;1268;74648;-41
2023/11/21 08:41:41;;;;;;;6.90;3.30;;;;;;;18.75;52.93;97374.02;104374;1272;65013;-40
2023/11/21 08:44:09;;;;;;;3.60;3.00;;;;;;;18.75;52.82;97372.46;104082;1268;72375;-42
2023/11/21 08:46:38;;;;;;;4.20;3.40;;;;;;;18.75;52.83;97369.52;104277;1276;61371;-40
2023/11/21 08:49:06;;;;;;;5.60;3.40;;;;;;;18.76;52.87;97373.34;104415;1268;61369;-41
2023/11/21 08:51:32;;;;;;;3.20;2.80;;;;;;;18.77;52.78;97374.44;104241;1268;75194;-41
2023/11/21 08:54:01;;;;;;;5.80;3.20;;;;;;;18.77;52.76;97374.75;104144;1273;65975;-41
2023/11/21 08:56:29;;;;;;;4.10;3.30;;;;;;;18.78;52.76;97370.11;104275;1268;72610;-41
2023/11/21 08:58:56;;;;;;;3.60;3.30;;;;;;;18.79;52.79;97375.32;104160;1268;61245;-40
2023/11/21 09:01:23;;;;;;;3.00;2.60;;;;;;;18.78;52.82;97377.73;104258;1268;61284;-41
2023/11/21 09:03:50;;;;;;;5.10;3.10;;;;;;;18.79;52.88;97374.40;104203;1274;75415;-41
2023/11/21 09:06:17;;;;;;;3.10;2.70;;;;;;;18.79;52.98;97374.95;104201;1268;67285;-43
2023/11/21 09:08:45;;;;;;;5.00;3.30;;;;;;;18.79;53.12;97376.27;106025;1271;72430;-42
2023/11/21 09:11:12;;;;;;;5.30;2.90;;;;;;;18.80;53.24;97378.06;108208;1268;60057;-43
2023/11/21 09:13:38;;;;;;;5.60;3.30;;;;;;;18.80;53.43;97372.10;108329;1268;59121;-42
2023/11/21 09:16:05;;;;;;;5.30;3.50;;;;;;;18.81;53.57;97370.73;108297;1271;59207;-44
2023/11/21 09:18:32;;;;;;;4.80;3.60;;;;;;;18.82;53.55;97369.90;108247;1268;66262;-41
2023/11/21 09:20:58;;;;;;;6.70;3.60;;;;;;;18.83;53.78;97367.98;108308;1268;71163;-44
2023/11/21 09:23:25;;;;;;;5.40;3.30;;;;;;;18.86;53.91;97372.90;106208;1270;62400;-49
2023/11/21 09:25:56;;;;;;;7.10;3.60;;;;;;;18.88;54.05;97371.31;104153;1273;61933;-50
2023/11/21 09:28:23;;;;;;;4.00;3.60;;;;;;;18.90;54.09;97360.43;104440;1268;76764;-43
2023/11/21 09:30:54;;;;;;;4.60;3.60;;;;;;;18.92;54.13;97353.73;104285;1272;66907;-41
2023/11/21 09:33:24;;;;;;;5.30;3.70;;;;;;;18.94;54.25;97353.77;103934;1275;261162;-48
2023/11/21 09:35:52;;;;;;;6.40;3.80;;;;;;;18.97;54.26;97355.06;107089;1270;60460;-48
2023/11/21 09:38:19;;;;;;;5.50;4.00;;;;;;;18.99;54.38;97355.35;104468;1268;61353;-51
2023/11/21 09:40:46;;;;;;;6.10;3.80;;;;;;;19.01;54.40;97355.92;104451;1268;74591;-48
2023/11/21 09:43:17;;;;;;;7.70;4.30;;;;;;;19.04;54.61;97356.36;104279;1272;66037;-48
2023/11/21 09:45:48;;;;;;;8.90;4.20;;;;;;;19.06;54.76;97360.29;104207;1269;72845;-52
2023/11/21 09:48:16;;;;;;;8.50;4.20;;;;;;;19.09;54.82;97361.66;104267;1274;61288;-49
2023/11/21 09:50:43;;;;;;;5.70;3.90;;;;;;;19.11;54.72;97367.73;106034;1269;61217;-54
2023/11/21 09:53:20;;;;;;;5.70;3.60;;;;;;;19.12;54.74;97368.13;104599;1269;75030;-54
2023/11/21 09:55:50;;;;;;;8.70;3.70;;;;;;;19.13;54.53;97364.67;104301;1274;64025;-55
2023/11/21 09:58:21;;;;;;;6.50;3.80;;;;;;;19.14;54.48;97367.46;103777;1279;71669;-51
2023/11/21 10:00:49;;;;;;;7.10;4.10;;;;;;;19.14;54.30;97359.87;104286;1273;61386;-51
2023/11/21 10:03:16;;;;;;;4.30;3.70;;;;;;;19.14;54.23;97358.71;104442;1272;61312;-53
2023/11/21 10:05:45;;;;;;;4.90;3.80;;;;;;;19.14;54.24;97359.78;104345;1268;74625;-51
2023/11/21 10:08:12;;;;;;;4.80;3.70;;;;;;;19.13;54.09;97356.11;104282;1268;65464;-49
2023/11/21 10:10:45;;;;;;;5.00;3.90;;;;;;;19.12;54.09;97350.60;104505;1268;74019;-55
2023/11/21 10:13:18;;;;;;;5.00;3.70;;;;;;;19.13;54.11;97349.54;104367;1273;61622;-49
2023/11/21 10:15:50;;;;;;;7.10;4.00;;;;;;;19.13;54.32;97348.61;105061;1268;61518;-58
2023/11/21 10:21:34;;;;;;;4.90;3.50;;;;;;;19.16;54.65;97352.60;104681;1274;66474;-50
2023/11/21 10:24:06;;;;;;;7.70;4.00;;;;;;;19.17;54.77;97361.46;104988;1276;74986;-54
2023/11/21 10:26:32;;;;;;;4.10;3.50;;;;;;;19.18;54.86;97365.45;108315;1267;60178;-57
2023/11/21 10:29:16;;;;;;;6.10;3.50;;;;;;;19.20;54.90;97372.06;105685;1273;61927;-52
2023/11/21 10:31:45;;;;;;;6.30;4.00;;;;;;;19.22;54.78;97374.75;105801;1275;74805;-53
2023/11/21 10:34:21;;;;;;;4.90;4.00;;;;;;;19.23;54.81;97375.08;104301;1273;65386;-58
2023/11/21 10:36:48;;;;;;;6.00;4.40;;;;;;;19.25;54.73;97368.73;103772;1276;71595;-52
2023/11/21 10:39:19;;;;;;;6.20;4.10;;;;;;;19.26;54.79;97365.42;104219;1273;61460;-56
2023/11/21 10:41:47;;;;;;;6.40;4.70;;;;;;;19.27;54.82;97361.58;104217;1268;61228;-55
2023/11/21 10:44:23;;;;;;;5.40;3.90;;;;;;;19.28;54.69;97368.73;104661;1269;75791;-55
2023/11/21 10:46:57;;;;;;;4.20;3.70;;;;;;;19.28;54.75;97370.59;104558;1274;65058;-52
2023/11/21 10:49:27;;;;;;;5.50;4.30;;;;;;;19.29;54.68;97369.91;104186;1272;72232;-59
2023/11/21 10:51:55;;;;;;;6.90;3.80;;;;;;;19.31;54.66;97367.38;104069;1273;62738;-56
2023/11/21 10:54:25;;;;;;;6.60;4.70;;;;;;;19.32;54.62;97364.29;104661;1270;61257;-59
2023/11/21 10:57:01;;;;;;;6.50;4.40;;;;;;;19.32;54.50;97363.45;104243;1274;74546;-61
2023/11/21 10:59:31;;;;;;;6.60;4.40;;;;;;;19.33;54.43;97368.11;104344;1274;67037;-58
2023/11/21 11:02:03;;;;;;;6.40;4.50;;;;;;;19.33;54.37;97368.12;104164;1269;71505;-61
2023/11/21 11:04:30;;;;;;;10.30;4.90;;;;;;;19.33;54.33;97363.30;104908;1272;61288;-52
2023/11/21 11:06:58;;;;;;;6.90;4.70;;;;;;;19.33;54.15;97358.65;103963;1270;61275;-61
2023/11/21 11:09:25;;;;;;;6.30;4.60;;;;;;;19.33;54.00;97359.34;104365;1268;75500;-60
2023/11/21 11:11:52;;;;;;;6.20;4.60;;;;;;;19.32;53.91;97360.96;104156;1274;66146;-59
2023/11/21 11:17:25;;;;;;;5.60;4.50;;;;;;;19.31;53.62;97354.35;104522;1274;61269;-62
2023/11/21 11:20:01;;;;;;;5.10;4.50;;;;;;;19.29;53.50;97354.40;103937;1273;61307;-59
2023/11/21 11:22:38;;;;;;;5.40;4.80;;;;;;;19.29;53.40;97354.23;103962;1276;73930;-62
2023/11/21 11:25:25;;;;;;;;;;;;;;;19.29;53.37;97356.64;104346;1272;64186;-60
2023/11/21 11:27:58;;;;;;;7.20;4.80;;;;;;;19.27;53.24;97357.21;104659;1273;72665;-57
2023/11/21 11:30:52;;;;;;;6.40;5.30;;;;;;;19.26;53.32;97358.30;104361;1274;61371;-51
2023/11/21 11:33:48;;;;;;;6.80;5.00;;;;;;;19.27;53.48;97357.98;104386;1272;62967;-53
2023/11/21 11:36:59;;;;;;;7.30;4.60;;;;;;;19.27;53.54;97355.90;104577;1273;74511;-46